Weather at Da Nang International Airport

Public forecast

Using degrees Celsius for public forecast. Weather courtesy of forecast.io.

Current aviation weather report (METAR) for Da Nang International Airport

Retrieved 2021/09/28 22:00 UTC (29 minutes ago):

VVDN 282200Z 20001KT 8000 FEW015 25/25 Q1009 NOSIG

Aviation forecast (TAF) for Da Nang International Airport

Retrieved 2021/09/28 18:36 UTC (4 hours ago):

TAF VVDN 281700Z 2818/2918 VRB02KT 9999 SCT015 TEMPO 2818/2901 4500 SHRA SCT015 FEW017CB BKN060 BECMG 2902/2904 04010KT